Time;durP1;ratioP1;P1;durP2;ratioP2;P2;SDS_P1;SDS_P2;PMS_P1;PMS_P2;Temp;Humidity;BMP_temperature;BMP_pressure;BME280_temperature;BME280_humidity;BME280_pressure;Samples;Min_cycle;Max_cycle;Signal;HPM_P1;HPM_P2
2022/07/04 00:04:10;;;;;;;6.57;3.85;;;;;;;19.11;79.26;96305.16;10365750;28;97102;-72
2022/07/04 00:09:15;;;;;;;7.45;4.15;;;;;;;18.94;79.70;96327.69;10359381;28;100530;-72
2022/07/04 00:14:18;;;;;;;5.88;3.83;;;;;;;19.01;80.46;96304.72;10368552;28;96818;-72
2022/07/04 00:19:20;;;;;;;9.35;4.57;;;;;;;19.08;79.55;96300.25;10364634;28;98676;-72
2022/07/04 00:24:25;;;;;;;5.78;4.10;;;;;;;18.92;80.68;96295.31;10365522;28;96693;-72
2022/07/04 00:29:27;;;;;;;9.57;4.72;;;;;;;18.81;80.90;96302.78;10361798;28;96871;-72
2022/07/04 00:34:30;;;;;;;11.57;4.90;;;;;;;18.71;81.07;96307.63;10367013;28;97148;-72
2022/07/04 00:39:34;;;;;;;7.60;4.50;;;;;;;18.65;80.98;96303.13;10365204;28;96908;-72
2022/07/04 00:44:42;;;;;;;5.93;4.28;;;;;;;18.66;81.14;96299.47;10367044;28;96835;-73
2022/07/04 00:49:46;;;;;;;9.52;4.70;;;;;;;18.74;81.19;96303.75;10367392;28;96971;-72
2022/07/04 00:54:50;;;;;;;6.93;4.60;;;;;;;18.80;81.50;96295.84;10365839;28;97631;-72
2022/07/04 00:59:53;;;;;;;8.65;4.30;;;;;;;18.94;81.26;96306.53;10364658;28;97060;-72
2022/07/04 01:04:56;;;;;;;5.63;4.40;;;;;;;18.99;81.35;96319.97;10367134;28;97182;-72
2022/07/04 01:10:01;;;;;;;4.25;3.65;;;;;;;18.80;82.02;96332.91;10363171;28;96803;-72
2022/07/04 01:15:04;;;;;;;;;;;;;;;18.66;81.05;96336.50;10360694;28;97317;-72
2022/07/04 01:20:12;;;;;;;5.45;3.78;;;;;;;18.55;81.00;96350.28;10372497;28;96864;-71
2022/07/04 01:25:15;;;;;;;5.78;3.25;;;;;;;18.56;81.45;96336.84;10369664;28;96938;-72
2022/07/04 01:30:18;;;;;;;6.47;3.78;;;;;;;18.60;81.70;96337.28;10369287;28;97034;-72
2022/07/04 01:35:23;;;;;;;5.97;3.60;;;;;;;18.73;81.63;96336.53;10371358;28;97107;-72
2022/07/04 01:40:25;;;;;;;5.85;3.55;;;;;;;18.84;81.64;96339.41;10372587;28;96830;-72
2022/07/04 01:45:29;;;;;;;6.00;4.32;;;;;;;18.90;81.17;96347.63;10371944;28;96926;-72
2022/07/04 01:50:33;;;;;;;6.60;3.75;;;;;;;18.93;80.72;96339.28;10370427;28;98523;-72
2022/07/04 01:55:36;;;;;;;7.05;4.13;;;;;;;18.92;81.07;96340.31;10372926;28;97834;-72
2022/07/04 02:06:00;;;;;;;6.68;4.18;;;;;;;18.84;82.37;96328.84;10372240;28;96798;-71
2022/07/04 02:11:03;;;;;;;7.40;3.90;;;;;;;18.70;82.52;96332.44;10373828;28;96709;-71
2022/07/04 02:16:06;;;;;;;5.15;3.78;;;;;;;18.64;82.29;96344.63;10370042;28;100686;-72
2022/07/04 02:21:10;;;;;;;4.05;3.65;;;;;;;18.52;82.49;96332.16;10366720;28;97099;-71
2022/07/04 02:26:13;;;;;;;8.30;3.65;;;;;;;18.40;82.49;96326.59;10371342;28;97773;-71
2022/07/04 02:31:15;;;;;;;5.43;3.25;;;;;;;18.34;82.84;96337.94;10368295;28;96881;-72
2022/07/04 02:36:20;;;;;;;4.97;3.67;;;;;;;18.28;82.09;96350.94;10368356;28;96758;-71
2022/07/04 02:41:22;;;;;;;5.78;3.30;;;;;;;18.33;82.53;96358.28;10370471;28;97161;-72
2022/07/04 02:46:26;;;;;;;5.47;3.40;;;;;;;18.36;82.76;96357.91;10373114;28;97997;-72
2022/07/04 02:51:30;;;;;;;5.25;3.00;;;;;;;18.40;81.71;96353.84;10367529;28;97643;-71
2022/07/04 02:56:33;;;;;;;6.10;3.55;;;;;;;18.42;81.93;96351.84;10369968;28;98116;-72
2022/07/04 03:01:36;;;;;;;8.23;3.30;;;;;;;18.43;81.78;96347.34;10369069;28;97066;-72
2022/07/04 03:06:42;;;;;;;5.43;2.80;;;;;;;18.46;81.49;96363.69;10367621;28;96721;-71
2022/07/04 03:11:46;;;;;;;5.07;3.00;;;;;;;18.47;81.47;96365.28;10366328;28;97716;-72
2022/07/04 03:16:48;;;;;;;6.65;3.40;;;;;;;18.45;81.63;96369.97;10370166;28;96821;-71
2022/07/04 03:21:53;;;;;;;3.95;3.15;;;;;;;18.48;81.34;96374.03;10366304;28;97033;-71
2022/07/04 03:26:55;;;;;;;4.10;2.83;;;;;;;18.49;82.07;96384.44;10366258;28;96724;-71
2022/07/04 03:31:58;;;;;;;4.50;3.28;;;;;;;18.50;81.78;96388.72;10371535;28;96797;-71
2022/07/04 03:37:03;;;;;;;5.95;3.30;;;;;;;18.53;82.44;96384.84;10366039;28;96992;-71
2022/07/04 03:42:06;;;;;;;5.53;3.20;;;;;;;18.58;81.79;96387.75;10357136;28;97866;-72
2022/07/04 03:47:09;;;;;;;7.78;4.00;;;;;;;18.48;82.12;96387.25;10370659;28;97504;-71
2022/07/04 03:52:13;;;;;;;6.72;4.10;;;;;;;18.30;82.47;96371.91;10365542;28;97090;-71
2022/07/04 03:57:16;;;;;;;5.40;3.67;;;;;;;18.13;82.68;96374.84;10369003;28;97092;-71
2022/07/04 04:02:19;;;;;;;5.60;3.88;;;;;;;18.13;82.74;96374.84;10368564;28;98098;-71
2022/07/04 04:07:23;;;;;;;4.50;3.85;;;;;;;18.06;82.88;96368.66;10363111;28;98060;-71
2022/07/04 04:12:26;;;;;;;6.03;3.90;;;;;;;17.93;83.35;96363.28;10366814;28;97025;-71
2022/07/04 04:17:29;;;;;;;6.80;4.35;;;;;;;17.90;83.58;96375.03;10367390;28;96842;-71
2022/07/04 04:22:33;;;;;;;8.73;4.45;;;;;;;17.89;84.02;96364.66;10366050;28;97126;-71
2022/07/04 04:27:36;;;;;;;5.32;4.13;;;;;;;17.79;84.00;96382.63;10368430;28;96897;-71
2022/07/04 04:32:38;;;;;;;5.93;3.40;;;;;;;17.78;84.43;96391.56;10366259;28;96972;-72
2022/07/04 04:37:42;;;;;;;8.23;3.72;;;;;;;17.78;84.44;96383.66;10361843;28;98732;-71
2022/07/04 04:42:45;;;;;;;7.82;3.97;;;;;;;17.84;84.28;96374.97;10365638;28;98049;-71
2022/07/04 04:47:48;;;;;;;6.38;3.35;;;;;;;17.92;84.27;96382.78;10364354;28;100399;-71
2022/07/04 04:52:52;;;;;;;4.50;3.60;;;;;;;18.00;83.43;96401.16;10369888;28;97825;-71
2022/07/04 04:57:55;;;;;;;7.60;3.58;;;;;;;18.04;84.07;96412.97;10372611;28;97008;-71
2022/07/04 05:02:58;;;;;;;5.53;3.20;;;;;;;18.04;83.91;96410.34;10370820;28;96869;-71
2022/07/04 05:08:02;;;;;;;6.65;3.75;;;;;;;18.09;83.93;96405.28;10373281;28;96903;-71
2022/07/04 05:13:05;;;;;;;6.03;3.65;;;;;;;18.06;84.08;96394.28;10370686;28;96955;-71
2022/07/04 05:18:08;;;;;;;4.22;3.45;;;;;;;18.08;83.86;96387.81;10370360;28;96985;-71
2022/07/04 05:23:12;;;;;;;7.15;3.60;;;;;;;18.17;83.95;96375.28;10368499;28;97372;-71
2022/07/04 05:28:15;;;;;;;4.45;3.67;;;;;;;18.31;83.87;96382.28;10369927;28;97047;-72
2022/07/04 05:33:18;;;;;;;7.80;3.80;;;;;;;18.47;84.12;96390.94;10363710;28;98260;-71
2022/07/04 05:38:22;;;;;;;5.90;3.67;;;;;;;18.62;83.78;96396.94;10370096;28;96794;-71
2022/07/04 05:43:25;;;;;;;6.93;3.55;;;;;;;18.76;83.14;96410.22;10370146;28;97959;-71
2022/07/04 05:48:28;;;;;;;6.38;4.15;;;;;;;18.94;82.74;96407.91;10367934;28;97815;-72
2022/07/04 05:53:32;;;;;;;8.07;3.15;;;;;;;19.12;81.60;96399.44;10368612;28;97204;-71
2022/07/04 05:58:35;;;;;;;5.07;3.90;;;;;;;19.29;81.51;96393.81;10371729;28;96959;-71
2022/07/04 06:03:38;;;;;;;6.75;3.20;;;;;;;19.41;81.23;96392.22;10370068;28;96993;-71
2022/07/04 06:08:42;;;;;;;5.28;3.08;;;;;;;19.56;81.53;96389.41;10369296;28;96812;-71
2022/07/04 06:13:45;;;;;;;5.13;3.22;;;;;;;19.65;81.41;96392.69;10370813;28;97126;-71
2022/07/04 06:18:48;;;;;;;5.70;3.15;;;;;;;19.76;81.19;96394.72;10371595;28;96912;-71
2022/07/04 06:23:53;;;;;;;7.80;3.38;;;;;;;19.83;80.43;96395.59;10368730;28;98108;-71
2022/07/04 06:28:56;;;;;;;4.38;2.75;;;;;;;19.97;80.40;96378.69;10367929;28;97121;-72
2022/07/04 06:39:20;;;;;;;5.45;3.00;;;;;;;20.49;78.68;96393.94;10357963;28;96750;-71
2022/07/04 06:44:23;;;;;;;3.90;2.72;;;;;;;20.62;78.33;96378.00;10373138;28;96721;-71
2022/07/04 06:49:26;;;;;;;4.28;2.85;;;;;;;20.70;77.43;96383.09;10366934;28;97006;-71
2022/07/04 06:54:30;;;;;;;4.82;2.75;;;;;;;20.78;76.54;96373.31;10367047;28;96879;-71
2022/07/04 06:59:33;;;;;;;;;;;;;;;20.75;76.97;96369.22;10357269;28;97482;-72
2022/07/04 07:04:37;;;;;;;5.10;2.60;;;;;;;20.67;76.14;96372.91;10368398;28;97032;-73
2022/07/04 07:09:41;;;;;;;3.45;2.50;;;;;;;20.60;76.15;96356.19;10366964;28;96719;-73
2022/07/04 07:14:45;;;;;;;4.03;2.80;;;;;;;20.66;75.81;96376.56;10367251;28;96816;-72
2022/07/04 07:19:48;;;;;;;5.70;2.67;;;;;;;20.68;75.03;96365.75;10370047;28;96864;-73
2022/07/04 07:24:52;;;;;;;5.43;2.58;;;;;;;20.79;75.26;96372.28;10356154;28;98864;-73
2022/07/04 07:29:55;;;;;;;5.07;2.40;;;;;;;21.00;74.74;96363.22;10365582;28;97263;-74
2022/07/04 07:34:58;;;;;;;5.05;2.80;;;;;;;21.26;74.59;96362.31;10358869;28;98169;-72
2022/07/04 07:40:03;;;;;;;4.10;2.30;;;;;;;21.43;73.88;96358.13;10359695;28;100370;-72
2022/07/04 07:45:07;;;;;;;5.03;2.72;;;;;;;21.56;73.24;96353.75;10336562;28;97910;-74
2022/07/04 07:50:10;;;;;;;4.18;2.40;;;;;;;21.79;72.49;96369.97;10359998;28;97019;-74
2022/07/04 07:55:14;;;;;;;4.10;2.58;;;;;;;21.94;71.58;96366.22;10363744;28;97507;-74
2022/07/04 08:00:17;;;;;;;;;;;;;;;22.12;71.84;96368.91;10366690;28;97281;-73
2022/07/04 08:05:40;;;;;;;3.80;2.72;;;;;;;22.27;71.86;96355.28;10363348;28;96874;-73
2022/07/04 08:10:44;;;;;;;4.35;2.72;;;;;;;22.48;71.02;96354.09;10368440;28;96789;-73
2022/07/04 08:15:47;;;;;;;4.05;2.50;;;;;;;22.78;69.84;96354.16;10365813;28;98280;-73
2022/07/04 08:20:50;;;;;;;5.53;2.85;;;;;;;23.07;69.53;96348.31;10365221;28;97476;-73
2022/07/04 08:26:14;;;;;;;6.57;2.70;;;;;;;23.40;68.83;96323.13;10366117;28;96897;-73
2022/07/04 08:31:17;;;;;;;3.70;2.50;;;;;;;23.48;67.69;96314.78;10364876;28;98554;-73
2022/07/04 08:36:40;;;;;;;3.85;2.85;;;;;;;23.57;67.04;96302.75;10366666;28;96847;-73
2022/07/04 08:41:44;;;;;;;3.80;2.58;;;;;;;23.57;67.47;96305.41;10366452;28;96814;-73
2022/07/04 08:46:51;;;;;;;4.30;2.67;;;;;;;24.12;66.68;96310.50;10368186;28;100492;-73
2022/07/04 08:51:59;;;;;;;3.42;2.55;;;;;;;24.65;65.17;96313.25;10363900;28;97088;-73
2022/07/04 09:02:27;;;;;;;4.00;2.40;;;;;;;24.75;63.08;96305.44;10361678;28;96705;-73
2022/07/04 09:07:30;;;;;;;5.72;2.72;;;;;;;24.61;63.52;96280.03;10362657;28;97319;-73
2022/07/04 09:12:34;;;;;;;4.50;2.50;;;;;;;24.52;63.37;96271.56;10363601;28;100453;-73
2022/07/04 09:17:57;;;;;;;;;;;;;;;24.41;63.96;96281.22;10366704;28;97183;-73
2022/07/04 09:23:18;;;;;;;4.32;3.10;;;;;;;24.36;63.40;96262.44;10367569;28;96919;-73
2022/07/04 09:28:31;;;;;;;3.72;2.60;;;;;;;24.21;63.83;96275.44;10363516;28;97197;-73
2022/07/04 09:33:45;;;;;;;6.32;2.70;;;;;;;24.48;63.59;96295.25;10363328;28;96947;-73
2022/07/04 09:39:06;;;;;;;4.63;2.42;;;;;;;24.87;62.21;96306.25;10365788;28;96884;-73
2022/07/04 09:44:11;;;;;;;4.40;2.42;;;;;;;25.16;61.66;96308.13;10374749;28;97176;-73
2022/07/04 09:49:14;;;;;;;6.47;3.03;;;;;;;25.32;61.36;96301.19;10370025;28;96910;-73
2022/07/04 09:54:24;;;;;;;4.37;3.07;;;;;;;25.42;60.18;96302.19;10370268;28;96760;-73
2022/07/04 09:59:30;;;;;;;5.43;3.33;;;;;;;25.64;60.20;96304.22;10366381;28;97004;-73
2022/07/04 10:04:46;;;;;;;4.22;3.75;;;;;;;25.83;59.44;96307.47;10369775;28;96928;-73
2022/07/04 10:09:48;;;;;;;3.72;2.28;;;;;;;26.01;58.42;96319.78;10370637;28;96937;-73
2022/07/04 10:14:54;;;;;;;2.87;2.27;;;;;;;26.14;58.80;96310.63;10371634;28;98397;-74
2022/07/04 10:19:57;;;;;;;4.40;2.55;;;;;;;26.41;57.34;96320.69;10368588;28;96766;-73
2022/07/04 10:25:00;;;;;;;6.93;3.20;;;;;;;26.96;56.50;96313.66;10368090;28;98136;-73
2022/07/04 10:30:06;;;;;;;;;;;;;;;27.36;56.93;96313.28;10369584;28;96744;-74
2022/07/04 10:35:09;;;;;;;5.55;2.50;;;;;;;27.29;55.99;96323.41;10372992;28;96882;-74
2022/07/04 10:40:32;;;;;;;;;;;;;;;26.98;57.35;96323.06;10368413;28;96937;-73
2022/07/04 10:45:38;;;;;;;3.90;2.40;;;;;;;26.27;57.02;96337.09;10370888;28;97083;-73
2022/07/04 10:50:40;;;;;;;6.28;2.58;;;;;;;25.79;58.37;96333.91;10368136;28;96731;-73
2022/07/04 10:55:44;;;;;;;3.27;2.40;;;;;;;25.47;60.20;96357.66;10369831;28;96952;-73
2022/07/04 11:01:12;;;;;;;7.95;3.60;;;;;;;25.49;60.29;96307.41;10368529;28;97075;-73
2022/07/04 11:06:48;;;;;;;6.10;2.75;;;;;;;25.94;59.09;96303.09;10366602;28;97039;-73
2022/07/04 11:11:55;;;;;;;5.65;5.00;;;;;;;26.41;59.72;96285.84;10365356;28;97365;-73
2022/07/04 11:17:00;;;;;;;6.78;5.90;;;;;;;26.93;60.15;96272.03;10366815;28;97171;-73
2022/07/04 11:22:04;;;;;;;7.03;5.03;;;;;;;27.52;59.94;96255.22;10366575;28;97964;-74
2022/07/04 11:27:09;;;;;;;6.00;5.38;;;;;;;27.76;58.32;96244.16;10358031;28;96869;-73
2022/07/04 11:32:13;;;;;;;4.05;2.97;;;;;;;27.72;58.49;96235.00;10370664;28;97855;-73
2022/07/04 11:37:16;;;;;;;4.78;2.90;;;;;;;27.82;57.23;96238.59;10366824;28;97059;-74
2022/07/04 11:47:42;;;;;;;4.05;2.50;;;;;;;28.36;56.82;96228.72;10364509;28;96975;-74
2022/07/04 11:52:47;;;;;;;3.70;2.42;;;;;;;28.53;54.64;96232.03;10369869;28;96720;-74
2022/07/04 11:58:09;;;;;;;3.42;3.00;;;;;;;28.78;54.26;96217.88;10365223;28;97007;-74
2022/07/04 12:03:17;;;;;;;3.85;2.60;;;;;;;29.05;52.15;96202.63;10367738;28;96985;-74
2022/07/04 12:08:20;;;;;;;3.65;2.38;;;;;;;28.95;53.75;96203.41;10368187;28;96705;-74
2022/07/04 12:13:30;;;;;;;4.45;2.53;;;;;;;28.45;53.63;96194.09;10367376;28;97080;-74
2022/07/04 12:18:35;;;;;;;3.25;2.03;;;;;;;28.26;53.02;96204.47;10365976;28;96969;-74
2022/07/04 12:23:39;;;;;;;4.15;2.00;;;;;;;28.42;54.85;96195.44;10367041;28;97187;-74
2022/07/04 12:29:02;;;;;;;4.38;2.33;;;;;;;28.63;54.30;96184.75;10365978;28;96806;-74
2022/07/04 12:34:15;;;;;;;4.00;2.10;;;;;;;28.55;51.96;96160.03;10362666;28;96723;-74
2022/07/04 12:39:31;;;;;;;3.35;1.90;;;;;;;28.46;51.42;96155.41;10369570;28;97963;-74
2022/07/04 12:44:34;;;;;;;2.95;2.05;;;;;;;28.27;50.45;96142.41;10365189;28;96943;-74
2022/07/04 12:49:43;;;;;;;2.77;2.00;;;;;;;28.18;52.17;96130.56;10367013;28;96862;-74
2022/07/04 12:55:03;;;;;;;2.47;2.00;;;;;;;28.11;51.03;96130.81;10359071;28;97016;-74
2022/07/04 13:00:08;;;;;;;3.80;2.33;;;;;;;28.36;51.33;96132.00;10364182;28;97049;-74
2022/07/04 13:05:34;;;;;;;4.20;2.30;;;;;;;28.83;49.22;96111.41;10359940;28;96931;-74
2022/07/04 13:10:37;;;;;;;5.63;3.17;;;;;;;29.10;49.60;96103.13;10366032;28;96881;-74
2022/07/04 13:15:40;;;;;;;5.78;2.60;;;;;;;29.13;47.91;96095.31;10370456;28;96743;-74
2022/07/04 13:20:44;;;;;;;3.92;2.20;;;;;;;29.05;48.04;96095.06;10372675;28;96816;-74
2022/07/04 13:25:47;;;;;;;4.07;2.40;;;;;;;29.07;47.50;96087.53;10372945;28;96887;-74
2022/07/04 13:30:50;;;;;;;3.10;1.95;;;;;;;29.60;47.64;96093.41;10370684;28;97644;-74
2022/07/04 13:35:54;;;;;;;2.53;2.20;;;;;;;30.04;45.99;96100.84;10372030;28;98055;-74
2022/07/04 13:40:57;;;;;;;3.35;2.20;;;;;;;30.61;48.45;96109.44;10374649;28;96807;-75
2022/07/04 13:46:00;;;;;;;4.43;2.35;;;;;;;30.96;46.84;96117.59;10373686;28;97108;-75
2022/07/04 13:51:04;;;;;;;3.80;2.10;;;;;;;30.79;45.67;96109.91;10370284;28;99082;-75
2022/07/04 13:56:07;;;;;;;3.65;2.08;;;;;;;30.39;45.67;96107.16;10373410;28;97976;-75
2022/07/04 14:01:10;;;;;;;3.63;2.00;;;;;;;29.85;47.37;96111.41;10371358;28;97932;-75
2022/07/04 14:06:17;;;;;;;2.90;1.85;;;;;;;29.50;47.21;96106.84;10372031;28;96952;-75
2022/07/04 14:11:19;;;;;;;2.90;1.90;;;;;;;29.11;47.10;96107.44;10372729;28;96846;-75
2022/07/04 14:16:22;;;;;;;3.17;1.80;;;;;;;28.98;47.42;96100.69;10370351;28;96870;-75
2022/07/04 14:21:26;;;;;;;5.35;2.33;;;;;;;29.22;47.54;96100.97;10367990;28;96853;-75
2022/07/04 14:26:29;;;;;;;2.88;1.80;;;;;;;31.92;45.34;96088.13;10377580;28;96851;-75
2022/07/04 14:31:32;;;;;;;;;;;;;;;33.81;43.20;96091.81;10370328;28;97818;-76
2022/07/04 14:36:36;;;;;;;2.08;1.83;;;;;;;32.17;43.49;96099.75;10372218;28;98499;-75
2022/07/04 14:41:39;;;;;;;4.60;1.90;;;;;;;30.18;47.12;96106.44;10372680;28;100287;-75
2022/07/04 14:46:42;;;;;;;;;;;;;;;29.05;49.04;96111.19;10371835;28;96943;-73
2022/07/04 14:51:46;;;;;;;4.50;1.90;;;;;;;28.31;49.76;96114.00;10368195;28;96856;-73
2022/07/04 14:56:50;;;;;;;3.03;1.90;;;;;;;27.99;49.93;96117.59;10370432;28;96890;-73
2022/07/04 15:01:53;;;;;;;2.25;1.80;;;;;;;28.77;49.17;96126.72;10371329;28;97012;-73
2022/07/04 15:06:57;;;;;;;4.72;2.17;;;;;;;28.59;49.35;96120.78;10365614;28;96967;-73
2022/07/04 15:12:00;;;;;;;3.65;2.35;;;;;;;27.63;50.16;96113.91;10367213;28;96952;-76
2022/07/04 15:17:03;;;;;;;3.73;2.20;;;;;;;27.23;51.46;96105.31;10371400;28;96711;-75
2022/07/04 15:27:34;;;;;;;2.85;1.85;;;;;;;31.15;43.95;96106.94;10367154;28;98050;-76
2022/07/04 15:32:36;;;;;;;4.60;1.75;;;;;;;33.78;39.86;96102.47;10367166;28;96964;-74
2022/07/04 15:37:41;;;;;;;3.33;1.63;;;;;;;34.70;38.62;96092.47;10356156;28;100625;-74
2022/07/04 15:42:43;;;;;;;1.95;1.50;;;;;;;34.21;38.83;96073.16;10361419;28;98740;-74
2022/07/04 15:47:46;;;;;;;2.60;1.67;;;;;;;34.27;38.76;96064.91;10355892;28;97734;-75
2022/07/04 15:52:50;;;;;;;3.03;1.10;;;;;;;35.92;34.30;96092.44;10357376;28;98145;-75
2022/07/04 15:57:54;;;;;;;2.72;1.20;;;;;;;35.27;33.52;96091.13;10350667;28;97548;-75
2022/07/04 16:02:57;;;;;;;2.28;1.27;;;;;;;34.39;35.06;96095.03;10341560;28;96994;-75
2022/07/04 16:08:01;;;;;;;2.78;1.00;;;;;;;33.15;36.41;96106.50;10344025;28;96871;-75
2022/07/04 16:13:05;;;;;;;5.05;1.20;;;;;;;32.07;37.82;96124.97;10335279;28;96879;-75
2022/07/04 16:18:14;;;;;;;3.22;1.70;;;;;;;33.12;38.25;96137.69;10337057;28;96916;-75
2022/07/04 16:23:18;;;;;;;3.50;1.55;;;;;;;32.04;40.23;96151.78;10344009;28;97073;-75
2022/07/04 16:28:21;;;;;;;3.38;2.00;;;;;;;30.42;43.04;96165.09;10363108;28;96808;-74
2022/07/04 16:33:24;;;;;;;2.88;1.60;;;;;;;29.57;44.61;96177.38;10365379;28;96887;-74
2022/07/04 16:38:28;;;;;;;3.92;1.95;;;;;;;28.61;45.27;96196.56;10367567;28;96970;-74
2022/07/04 16:43:32;;;;;;;2.50;1.30;;;;;;;27.26;45.78;96206.69;10368553;28;97496;-74
2022/07/04 16:48:34;;;;;;;2.58;1.50;;;;;;;26.94;45.50;96217.41;10368648;28;100952;-74
2022/07/04 16:53:45;;;;;;;2.28;1.30;;;;;;;27.21;44.18;96238.03;10374549;28;96829;-73
2022/07/04 16:58:48;;;;;;;3.80;1.60;;;;;;;28.77;42.27;96232.38;10374349;28;98176;-74
2022/07/04 17:03:51;;;;;;;3.28;1.60;;;;;;;28.94;42.10;96224.13;10370863;28;98132;-73
2022/07/04 17:08:55;;;;;;;2.08;1.35;;;;;;;27.44;43.63;96218.09;10362912;28;100849;-74
2022/07/04 17:13:58;;;;;;;2.03;1.38;;;;;;;27.04;44.28;96220.19;10370782;28;96941;-73
2022/07/04 17:19:01;;;;;;;2.63;1.20;;;;;;;28.49;42.20;96196.00;10370638;28;98243;-74
2022/07/04 17:24:06;;;;;;;3.85;1.77;;;;;;;30.33;39.01;96182.91;10368047;28;96964;-74
2022/07/04 17:29:08;;;;;;;2.90;1.50;;;;;;;31.87;37.30;96181.94;10361406;28;100940;-74
2022/07/04 17:34:12;;;;;;;;;;;;;;;32.57;37.72;96176.03;10370208;28;97005;-74
2022/07/04 17:39:16;;;;;;;3.17;1.40;;;;;;;32.95;37.11;96175.25;10371732;28;97014;-74
2022/07/04 17:44:21;;;;;;;2.30;1.58;;;;;;;32.43;37.37;96173.19;10371476;28;97734;-76
2022/07/04 17:49:24;;;;;;;2.15;1.20;;;;;;;33.02;36.28;96181.91;10374474;28;96801;-76
2022/07/04 17:54:28;;;;;;;3.22;1.20;;;;;;;33.22;36.29;96207.06;10368520;28;97930;-76
2022/07/04 17:59:51;;;;;;;4.47;1.90;;;;;;;33.12;35.92;96220.75;10368726;28;96854;-76
2022/07/04 18:04:54;;;;;;;3.20;1.33;;;;;;;33.01;36.29;96226.31;10357201;28;97189;-75
2022/07/04 18:09:58;;;;;;;2.90;1.40;;;;;;;32.98;36.15;96237.72;10366994;28;97097;-76
2022/07/04 18:15:01;;;;;;;3.13;1.40;;;;;;;32.38;36.36;96248.16;10369285;28;96962;-76
2022/07/04 18:20:05;;;;;;;3.67;1.58;;;;;;;31.09;37.53;96248.38;10372638;28;96769;-76
2022/07/04 18:25:10;;;;;;;4.07;1.75;;;;;;;29.57;39.72;96255.44;10367772;28;98016;-75
2022/07/04 18:30:15;;;;;;;3.08;1.42;;;;;;;28.17;42.23;96264.06;10367506;28;96958;-75
2022/07/04 18:35:18;;;;;;;3.47;1.80;;;;;;;27.43;43.75;96270.97;10371970;28;96918;-75
2022/07/04 18:45:43;;;;;;;2.53;1.60;;;;;;;26.07;46.61;96270.63;10344374;28;100189;-76
2022/07/04 18:50:46;;;;;;;5.40;2.57;;;;;;;25.35;48.19;96268.66;10339046;28;96700;-76
2022/07/04 18:55:51;;;;;;;3.37;2.00;;;;;;;25.04;48.68;96284.13;10349105;28;97320;-75
2022/07/04 19:00:54;;;;;;;5.30;2.03;;;;;;;24.80;49.96;96275.34;10342601;28;96973;-76
2022/07/04 19:05:57;;;;;;;4.53;2.23;;;;;;;24.46;50.27;96276.00;10343988;28;97306;-76
2022/07/04 19:11:01;;;;;;;3.72;1.80;;;;;;;24.14;51.49;96278.25;10351544;28;97091;-76
2022/07/04 19:16:07;;;;;;;2.67;1.83;;;;;;;23.72;52.94;96283.63;10341954;28;96715;-76
2022/07/04 19:21:19;;;;;;;3.28;1.92;;;;;;;23.36;54.80;96291.56;10336932;28;98362;-76
2022/07/04 19:26:24;;;;;;;4.57;1.85;;;;;;;23.16;55.47;96296.34;10341693;28;96946;-76
2022/07/04 20:11:08;;;;;;;4.38;1.73;;;;;;;22.13;58.78;96346.59;10423226;27;108889;-74
2022/07/04 20:16:11;;;;;;;;;;;;;;;22.03;58.21;96352.41;10349840;28;98217;-74
2022/07/04 20:21:14;;;;;;;4.63;2.13;;;;;;;21.95;59.49;96346.53;10366979;28;100841;-74
2022/07/04 20:26:18;;;;;;;3.92;1.73;;;;;;;21.97;60.10;96363.09;10368599;28;98326;-74
2022/07/04 20:31:21;;;;;;;;;;;;;;;21.94;58.95;96368.88;10365850;28;97228;-74
2022/07/04 20:36:24;;;;;;;2.63;1.73;;;;;;;21.82;60.08;96377.53;10340586;28;97129;-74
2022/07/04 20:41:28;;;;;;;5.95;2.25;;;;;;;21.64;61.81;96388.06;10340841;28;97357;-74
2022/07/04 20:46:31;;;;;;;3.17;2.15;;;;;;;21.55;62.38;96379.50;10339534;28;97115;-73
2022/07/04 20:51:35;;;;;;;3.58;1.58;;;;;;;21.46;62.58;96386.09;10345588;28;96959;-74
2022/07/04 20:56:39;;;;;;;3.30;1.73;;;;;;;21.35;63.16;96382.28;10333984;28;97728;-73
2022/07/04 21:01:42;;;;;;;3.10;1.88;;;;;;;21.22;63.42;96367.19;10340796;28;96750;-73
2022/07/04 21:06:45;;;;;;;2.88;2.00;;;;;;;21.18;63.95;96370.50;10341479;28;96742;-73
2022/07/04 21:11:49;;;;;;;3.25;1.80;;;;;;;21.16;63.97;96364.59;10339743;28;96856;-73
2022/07/04 21:16:52;;;;;;;2.92;1.70;;;;;;;21.04;64.48;96353.81;10340120;28;97686;-73
2022/07/04 21:21:56;;;;;;;3.00;1.85;;;;;;;20.88;64.74;96345.28;10338354;28;97001;-73
2022/07/04 21:27:00;;;;;;;4.65;2.33;;;;;;;20.80;64.80;96342.06;10333466;28;96914;-73
2022/07/04 21:32:03;;;;;;;2.90;1.95;;;;;;;20.85;65.18;96344.91;10336828;28;97962;-73
2022/07/04 21:37:06;;;;;;;3.42;2.25;;;;;;;20.93;65.05;96348.13;10357013;28;97160;-73
2022/07/04 21:42:10;;;;;;;4.63;2.30;;;;;;;20.99;65.33;96350.97;10346722;28;98122;-73
2022/07/04 21:47:13;;;;;;;3.53;1.98;;;;;;;20.91;65.36;96350.19;10342900;28;96916;-73
2022/07/04 21:52:16;;;;;;;3.13;2.20;;;;;;;20.91;66.18;96366.13;10345819;28;98551;-72
2022/07/04 21:57:20;;;;;;;4.65;2.47;;;;;;;20.88;66.21;96365.72;10344242;28;96942;-72
2022/07/04 22:02:23;;;;;;;;;;;;;;;20.82;65.50;96375.31;10345129;28;96991;-72
2022/07/04 22:07:25;;;;;;;5.47;2.08;;;;;;;20.65;66.42;96382.91;10342542;28;96867;-72
2022/07/04 22:12:30;;;;;;;6.18;2.25;;;;;;;20.48;67.34;96387.03;10335921;28;97107;-73
2022/07/04 22:17:32;;;;;;;;;;;;;;;20.33;67.01;96390.69;10337439;28;96944;-72
2022/07/04 22:22:35;;;;;;;3.95;2.35;;;;;;;20.22;67.75;96388.69;10345731;28;97550;-72
2022/07/04 22:27:40;;;;;;;5.95;2.17;;;;;;;20.24;68.26;96376.03;10342088;28;97181;-72
2022/07/04 22:32:43;;;;;;;4.60;2.20;;;;;;;20.29;68.39;96378.88;10339321;28;97065;-72
2022/07/04 22:37:46;;;;;;;3.45;2.35;;;;;;;20.34;68.19;96375.63;10370633;28;97832;-72
2022/07/04 22:42:50;;;;;;;4.15;2.00;;;;;;;20.35;68.55;96367.44;10370915;28;97076;-72
2022/07/04 22:47:52;;;;;;;3.33;1.95;;;;;;;20.38;68.48;96372.34;10367260;28;96899;-72
2022/07/04 22:52:55;;;;;;;4.13;2.05;;;;;;;20.45;67.96;96360.91;10370053;28;97130;-72
2022/07/04 22:57:59;;;;;;;6.18;2.30;;;;;;;20.46;68.40;96357.22;10368815;28;97006;-72
2022/07/04 23:03:02;;;;;;;4.72;2.33;;;;;;;20.43;68.36;96355.81;10369270;28;96730;-72
2022/07/04 23:08:05;;;;;;;3.67;2.28;;;;;;;20.38;67.88;96350.28;10370802;28;96888;-72
2022/07/04 23:13:09;;;;;;;5.20;2.10;;;;;;;20.34;67.93;96344.59;10366248;28;96828;-72
2022/07/04 23:18:12;;;;;;;4.97;1.90;;;;;;;20.22;68.63;96340.94;10367047;28;97580;-72
2022/07/04 23:23:15;;;;;;;4.60;2.03;;;;;;;20.08;69.60;96331.34;10371182;28;100922;-72
2022/07/04 23:28:19;;;;;;;4.20;2.10;;;;;;;19.82;70.97;96335.66;10366878;28;96940;-72
2022/07/04 23:33:21;;;;;;;5.32;2.20;;;;;;;19.69;71.62;96341.72;10359474;28;96808;-72
2022/07/04 23:38:24;;;;;;;2.53;2.00;;;;;;;19.65;70.94;96350.28;10369944;28;96837;-72
2022/07/04 23:43:28;;;;;;;4.88;2.00;;;;;;;19.57;71.27;96354.75;10367810;28;97050;-72
2022/07/04 23:48:31;;;;;;;4.63;2.25;;;;;;;19.55;71.89;96343.53;10367673;28;98071;-72
2022/07/04 23:53:35;;;;;;;4.85;2.42;;;;;;;19.64;71.51;96349.44;10374557;28;96931;-72
2022/07/04 23:58:39;;;;;;;4.40;2.13;;;;;;;19.65;71.23;96355.59;10366439;28;96907;-72
